Terminal Aerodrome Forecast
Issued by NWS

Home | Current Version | Previous Version | Text Only | Print | Product List | Glossary On
Versions: 1 2 3 4 5 6 7 8 9 10 11 12 13 14 15
411
FTUS45 KTFX 200525
TAFGTF
TAF
KGTF 200525Z 2006/2106 19012G21KT P6SM FEW090 SCT250
     FM201600 23015G24KT P6SM SCT050 BKN250
     FM210300 23022G33KT P6SM FEW030 SCT250=

USA.gov is the U.S. government's official web portal to all federal, state and local government web resources and services.